createdAt,value
2018-12-18T00:01:36.984Z,-6.10
2018-12-18T00:05:41.267Z,-6.30
2018-12-18T00:09:45.420Z,-6.30
2018-12-18T00:13:49.619Z,-6.20
2018-12-18T00:17:53.758Z,-6.30
2018-12-18T00:21:57.907Z,-6.30
2018-12-18T00:26:02.270Z,-6.30
2018-12-18T00:30:07.042Z,-6.20
2018-12-18T00:34:11.570Z,-6.30
2018-12-18T00:38:15.816Z,-6.30
2018-12-18T00:42:20.068Z,-6.30
2018-12-18T00:46:24.253Z,-6.40
2018-12-18T00:50:28.574Z,-6.40
2018-12-18T00:54:32.715Z,-6.30
2018-12-18T00:58:36.982Z,-6.10
2018-12-18T01:02:41.117Z,-6.30
2018-12-18T01:06:45.292Z,-6.20
2018-12-18T01:10:49.463Z,-6.10
2018-12-18T01:14:53.807Z,-6.20
2018-12-18T01:18:57.935Z,-6.40
2018-12-18T01:23:02.217Z,-6.30
2018-12-18T01:27:06.363Z,-6.30
2018-12-18T01:31:10.543Z,-6.40
2018-12-18T01:35:14.871Z,-6.30
2018-12-18T01:39:19.035Z,-6.40
2018-12-18T01:43:23.220Z,-6.40
2018-12-18T01:47:27.451Z,-6.30
2018-12-18T01:51:31.622Z,-6.40
2018-12-18T01:55:35.907Z,-6.50
2018-12-18T01:59:40.137Z,-6.40
2018-12-18T02:03:44.354Z,-6.50
2018-12-18T02:07:48.492Z,-6.50
2018-12-18T02:11:52.739Z,-6.60
2018-12-18T02:15:56.897Z,-6.50
2018-12-18T02:20:01.086Z,-6.70
2018-12-18T02:24:05.330Z,-6.50
2018-12-18T02:28:09.515Z,-6.60
2018-12-18T02:32:13.749Z,-6.60
2018-12-18T02:36:17.940Z,-6.70
2018-12-18T02:40:23.123Z,-6.70
2018-12-18T02:44:27.336Z,-6.60
2018-12-18T02:48:31.638Z,-6.50
2018-12-18T02:52:35.904Z,-6.70
2018-12-18T02:56:42.840Z,-6.50
2018-12-18T03:00:47.108Z,-6.50
2018-12-18T03:04:51.260Z,-6.60
2018-12-18T03:08:55.569Z,-6.50
2018-12-18T03:12:59.887Z,-6.40
2018-12-18T03:17:04.034Z,-6.40
2018-12-18T03:21:08.273Z,-6.20
2018-12-18T03:25:12.372Z,-6.40
2018-12-18T03:29:16.760Z,-6.20
2018-12-18T03:33:20.928Z,-6.30
2018-12-18T03:37:25.091Z,-6.30
2018-12-18T03:41:31.007Z,-6.30
2018-12-18T03:45:35.261Z,-6.50
2018-12-18T03:49:39.394Z,-6.50
2018-12-18T03:53:43.708Z,-6.60
2018-12-18T03:57:47.875Z,-6.70
2018-12-18T04:01:52.135Z,-6.70
2018-12-18T04:05:56.288Z,-6.70
2018-12-18T04:10:00.531Z,-6.70
2018-12-18T04:14:04.812Z,-6.60
2018-12-18T04:18:09.096Z,-6.70
2018-12-18T04:22:13.285Z,-6.80
2018-12-18T04:26:17.433Z,-6.50
2018-12-18T04:30:21.666Z,-6.80
2018-12-18T04:34:25.813Z,-6.70
2018-12-18T04:38:30.008Z,-6.90
2018-12-18T04:42:34.227Z,-6.80
2018-12-18T04:46:38.554Z,-6.90
2018-12-18T04:50:42.694Z,-6.90
2018-12-18T04:54:46.896Z,-7.00
2018-12-18T04:58:51.038Z,-7.00
2018-12-18T05:02:55.332Z,-7.10
2018-12-18T05:06:59.559Z,-6.80
2018-12-18T05:11:03.751Z,-6.80
2018-12-18T05:15:07.943Z,-6.80
2018-12-18T05:19:12.071Z,-6.90
2018-12-18T05:23:16.275Z,-7.00
2018-12-18T05:27:20.405Z,-7.00
2018-12-18T05:31:24.604Z,-7.10
2018-12-18T05:35:28.840Z,-6.90
2018-12-18T05:39:32.994Z,-7.10
2018-12-18T05:43:37.180Z,-7.10
2018-12-18T05:47:41.406Z,-7.00
2018-12-18T05:51:45.661Z,-7.10
2018-12-18T05:55:49.785Z,-7.00
2018-12-18T05:59:53.970Z,-7.20
2018-12-18T06:03:58.134Z,-7.00
2018-12-18T06:08:02.355Z,-7.00
2018-12-18T06:12:06.515Z,-7.10
2018-12-18T06:16:10.697Z,-7.10
2018-12-18T06:20:14.863Z,-7.00
2018-12-18T06:24:19.065Z,-7.10
2018-12-18T06:28:23.223Z,-6.90
2018-12-18T06:32:27.413Z,-7.10
2018-12-18T06:36:31.544Z,-6.90
2018-12-18T06:40:36.253Z,-7.00
2018-12-18T06:44:41.401Z,-6.90
2018-12-18T06:48:45.654Z,-6.90
2018-12-18T06:52:49.859Z,-6.90
2018-12-18T06:56:54.125Z,-7.10
2018-12-18T07:00:58.283Z,-6.90
2018-12-18T07:05:02.482Z,-6.90
2018-12-18T07:09:09.087Z,-6.90
2018-12-18T07:13:13.207Z,-6.90
2018-12-18T07:17:17.807Z,-7.00
2018-12-18T07:21:22.099Z,-7.00
2018-12-18T07:25:26.242Z,-6.90
2018-12-18T07:29:31.215Z,-6.90
2018-12-18T07:33:35.430Z,-6.80
2018-12-18T07:37:39.758Z,-6.80
2018-12-18T07:41:44.119Z,-6.60
2018-12-18T07:45:48.390Z,-6.50
2018-12-18T07:49:52.678Z,-6.50
2018-12-18T07:53:56.822Z,-6.50
2018-12-18T07:58:00.966Z,-6.40
2018-12-18T08:02:05.250Z,-6.20
2018-12-18T08:06:09.410Z,-6.30
2018-12-18T08:10:13.659Z,-6.20
2018-12-18T08:14:17.905Z,-5.90
2018-12-18T08:18:22.064Z,-6.00
2018-12-18T08:22:26.308Z,-6.00
2018-12-18T08:26:30.474Z,-5.80
2018-12-18T08:30:34.663Z,-5.90
2018-12-18T08:34:38.846Z,-5.70
2018-12-18T08:38:43.072Z,-5.60
2018-12-18T08:42:47.233Z,-5.40
2018-12-18T08:46:51.508Z,-5.40
2018-12-18T08:50:55.819Z,-5.20
2018-12-18T08:55:00.368Z,-4.90
2018-12-18T08:59:04.699Z,-4.80
2018-12-18T09:03:09.196Z,-4.60
2018-12-18T09:07:13.461Z,-4.50
2018-12-18T09:11:17.809Z,-4.30
2018-12-18T09:15:27.294Z,-4.10
2018-12-18T09:19:31.857Z,-4.10
2018-12-18T09:23:36.139Z,-3.90
2018-12-18T09:27:40.297Z,-3.90
2018-12-18T09:31:44.583Z,-3.60
2018-12-18T09:35:49.770Z,-3.30
2018-12-18T09:39:54.246Z,-3.10
2018-12-18T09:44:30.155Z,-2.80
2018-12-18T09:48:34.306Z,-2.80
2018-12-18T09:52:38.907Z,-2.50
2018-12-18T09:56:48.166Z,-2.40
2018-12-18T10:00:52.531Z,-2.30
2018-12-18T10:04:56.869Z,-2.10
2018-12-18T10:09:01.097Z,-1.50
2018-12-18T10:13:05.375Z,-0.90
2018-12-18T10:17:09.527Z,0.20
2018-12-18T10:21:13.814Z,0.90
2018-12-18T10:25:17.982Z,1.50
2018-12-18T10:29:22.672Z,1.80
2018-12-18T10:33:27.307Z,2.50
2018-12-18T10:37:31.913Z,3.60
2018-12-18T10:41:36.321Z,3.60
2018-12-18T10:45:40.926Z,3.30
2018-12-18T10:49:45.082Z,3.50
2018-12-18T10:53:51.373Z,3.40
2018-12-18T10:57:55.505Z,4.00
2018-12-18T11:02:01.770Z,4.10
2018-12-18T11:06:09.776Z,4.60
2018-12-18T11:10:12.345Z,4.50
2018-12-18T11:14:16.490Z,4.60
2018-12-18T11:18:20.720Z,4.70
2018-12-18T11:22:24.914Z,4.70
2018-12-18T11:26:29.062Z,4.70
2018-12-18T11:30:33.227Z,4.60
2018-12-18T11:34:37.423Z,4.00
2018-12-18T11:38:41.709Z,3.40
2018-12-18T11:42:45.852Z,3.20
2018-12-18T11:46:50.086Z,3.00
2018-12-18T11:50:54.250Z,2.90
2018-12-18T11:54:58.450Z,2.70
2018-12-18T11:59:02.592Z,2.60
2018-12-18T12:03:06.860Z,2.50
2018-12-18T12:07:11.024Z,2.40
2018-12-18T12:11:15.257Z,2.50
2018-12-18T12:15:19.402Z,2.70
2018-12-18T12:19:23.676Z,2.70
2018-12-18T12:23:27.840Z,2.60
2018-12-18T12:27:36.833Z,2.40
2018-12-18T12:31:41.063Z,2.30
2018-12-18T12:35:45.332Z,2.50
2018-12-18T12:39:49.526Z,3.70
2018-12-18T12:43:54.178Z,3.70
2018-12-18T12:48:00.268Z,3.30
2018-12-18T12:52:04.501Z,3.20
2018-12-18T12:56:08.715Z,4.00
2018-12-18T13:00:13.443Z,4.40
2018-12-18T13:04:17.594Z,3.50
2018-12-18T13:08:21.751Z,3.50
2018-12-18T13:12:26.014Z,2.90
2018-12-18T13:16:30.222Z,3.40
2018-12-18T13:20:34.522Z,3.20
2018-12-18T13:24:38.726Z,2.40
2018-12-18T13:28:42.907Z,1.90
2018-12-18T13:32:47.198Z,1.70
2018-12-18T13:36:51.435Z,1.50
2018-12-18T13:40:55.666Z,1.20
2018-12-18T13:44:59.922Z,1.10
2018-12-18T13:49:04.172Z,1.10
2018-12-18T13:53:08.446Z,1.00
2018-12-18T13:57:12.626Z,1.00
2018-12-18T14:01:17.913Z,1.00
2018-12-18T14:05:22.138Z,0.90
2018-12-18T14:09:26.372Z,0.80
2018-12-18T14:13:30.558Z,0.80
2018-12-18T14:17:35.967Z,0.70
2018-12-18T14:21:40.243Z,0.50
2018-12-18T14:25:44.526Z,-0.10
2018-12-18T14:29:49.104Z,0.20
2018-12-18T14:33:53.319Z,0.10
2018-12-18T14:37:57.626Z,0.00
2018-12-18T14:42:01.820Z,-0.10
2018-12-18T14:46:06.156Z,-0.10
2018-12-18T14:50:10.639Z,-0.40
2018-12-18T14:54:15.280Z,-0.40
2018-12-18T14:58:19.481Z,-0.70
2018-12-18T15:02:23.723Z,-0.70
2018-12-18T15:06:27.880Z,-0.80
2018-12-18T15:10:34.643Z,-1.00
2018-12-18T15:14:38.794Z,-1.00
2018-12-18T15:18:43.127Z,-1.10
2018-12-18T15:22:47.281Z,-1.10
2018-12-18T15:26:51.550Z,-1.10
2018-12-18T15:30:55.778Z,-1.30
2018-12-18T15:34:59.939Z,-1.40
2018-12-18T15:39:05.242Z,-1.60
2018-12-18T15:43:09.475Z,-1.60
2018-12-18T15:47:13.618Z,-1.80
2018-12-18T15:51:17.948Z,-1.70
2018-12-18T15:55:22.369Z,-1.80
2018-12-18T15:59:30.743Z,-1.90
2018-12-18T16:03:34.914Z,-1.90
2018-12-18T16:07:39.146Z,-2.00
2018-12-18T16:11:43.305Z,-2.30
2018-12-18T16:15:47.499Z,-2.30
2018-12-18T16:19:51.841Z,-2.30
2018-12-18T16:23:57.155Z,-2.30
2018-12-18T16:28:01.371Z,-2.50
2018-12-18T16:32:05.618Z,-2.60
2018-12-18T16:36:13.631Z,-2.50
2018-12-18T16:40:17.825Z,-2.70
2018-12-18T16:44:22.164Z,-2.70
2018-12-18T16:48:26.455Z,-2.80
2018-12-18T16:52:32.798Z,-2.60
2018-12-18T16:56:37.233Z,-2.70
2018-12-18T17:00:41.443Z,-2.80
2018-12-18T17:04:45.702Z,-2.80
2018-12-18T17:08:49.852Z,-2.90
2018-12-18T17:12:56.219Z,-2.90
2018-12-18T17:17:00.361Z,-3.00
2018-12-18T17:21:04.590Z,-3.00
2018-12-18T17:25:08.795Z,-3.10
2018-12-18T17:29:13.028Z,-3.10
2018-12-18T17:33:17.180Z,-3.30
2018-12-18T17:37:21.308Z,-3.30
2018-12-18T17:41:25.470Z,-3.40
2018-12-18T17:45:29.666Z,-3.30
2018-12-18T17:49:33.841Z,-3.20
2018-12-18T17:53:37.978Z,-3.30
2018-12-18T17:57:42.143Z,-3.20
2018-12-18T18:01:46.283Z,-3.00
2018-12-18T18:05:50.500Z,-3.10
2018-12-18T18:09:54.719Z,-3.00
2018-12-18T18:13:58.946Z,-3.00
2018-12-18T18:18:03.249Z,-3.00
2018-12-18T18:22:07.519Z,-3.10
2018-12-18T18:26:12.834Z,-3.10
2018-12-18T18:30:17.004Z,-2.90
2018-12-18T18:34:23.414Z,-2.70
2018-12-18T18:38:29.272Z,-2.70
2018-12-18T18:42:33.858Z,-2.50
2018-12-18T18:46:38.087Z,-2.40
2018-12-18T18:50:42.470Z,-2.30
2018-12-18T18:54:46.888Z,-2.20
2018-12-18T18:58:51.059Z,-2.10
2018-12-18T19:02:55.327Z,-2.10
2018-12-18T19:06:59.564Z,-2.00
2018-12-18T19:11:03.950Z,-1.90
2018-12-18T19:15:08.145Z,-1.70
2018-12-18T19:19:12.564Z,-1.80
2018-12-18T19:23:16.733Z,-1.60
2018-12-18T19:27:20.970Z,-1.70
2018-12-18T19:31:25.201Z,-1.60
2018-12-18T19:35:29.382Z,-1.60
2018-12-18T19:39:33.690Z,-1.60
2018-12-18T19:43:38.043Z,-1.50
2018-12-18T19:47:42.210Z,-1.50
2018-12-18T19:51:47.192Z,-1.40
2018-12-18T19:55:51.439Z,-1.30
2018-12-18T19:59:55.639Z,-1.40
2018-12-18T20:03:59.883Z,-1.20
2018-12-18T20:08:09.869Z,-1.20
2018-12-18T20:12:11.554Z,-1.20
2018-12-18T20:16:15.762Z,-1.20
2018-12-18T20:20:20.008Z,-1.10
2018-12-18T20:24:24.155Z,-0.90
2018-12-18T20:28:28.443Z,-1.10
2018-12-18T20:32:32.753Z,-1.20
2018-12-18T20:36:37.011Z,-1.20
2018-12-18T20:40:41.175Z,-0.80
2018-12-18T20:44:45.476Z,-1.00
2018-12-18T20:48:49.630Z,-1.30
2018-12-18T20:52:53.927Z,-0.80
2018-12-18T20:56:58.111Z,-1.00
2018-12-18T21:01:02.301Z,-1.00
2018-12-18T21:05:06.982Z,-0.80
2018-12-18T21:09:12.478Z,-1.10
2018-12-18T21:13:22.184Z,-1.10
2018-12-18T21:17:28.887Z,-0.80
2018-12-18T21:21:36.127Z,-0.80
2018-12-18T21:25:40.421Z,-0.90
2018-12-18T21:29:45.123Z,-0.70
2018-12-18T21:33:50.695Z,-0.70
2018-12-18T21:37:57.200Z,-0.80
2018-12-18T21:42:01.871Z,-0.70
2018-12-18T21:46:06.685Z,-0.90
2018-12-18T21:50:10.857Z,-0.70
2018-12-18T21:54:16.105Z,-1.00
2018-12-18T21:58:20.466Z,-0.90
2018-12-18T22:02:24.739Z,-0.80
2018-12-18T22:06:28.887Z,-0.90
2018-12-18T22:10:33.368Z,-0.70
2018-12-18T22:14:37.524Z,-0.80
2018-12-18T22:18:42.124Z,-0.90
2018-12-18T22:22:47.050Z,-0.70
2018-12-18T22:26:51.533Z,-0.90
2018-12-18T22:30:55.679Z,-0.80
2018-12-18T22:35:00.139Z,-0.60
2018-12-18T22:39:06.551Z,-0.80
2018-12-18T22:43:10.858Z,-0.60
2018-12-18T22:47:15.010Z,-0.60
2018-12-18T22:51:19.342Z,-0.50
2018-12-18T22:55:23.460Z,-0.60
2018-12-18T22:59:27.818Z,-0.70
2018-12-18T23:03:32.201Z,-0.60
2018-12-18T23:07:37.778Z,-0.70
2018-12-18T23:11:42.065Z,-0.70
2018-12-18T23:15:46.315Z,-0.80
2018-12-18T23:19:50.639Z,-0.80
2018-12-18T23:23:54.735Z,-0.80
2018-12-18T23:27:59.084Z,-0.70
2018-12-18T23:32:03.312Z,-0.70
2018-12-18T23:36:07.622Z,-0.60
2018-12-18T23:40:11.824Z,-0.60
2018-12-18T23:44:16.007Z,-0.80
2018-12-18T23:48:20.319Z,-0.60
2018-12-18T23:52:24.644Z,-0.80
2018-12-18T23:56:28.952Z,-0.70
